Cleveland, North Carolina
Current Conditions -  °F | °C
As of 7:55 PM on Saturday 22 Nov 2014 (Local Time) from KRUQ Reporting Station
Clear Clear  
Wind Chill: 39°   Ceiling: Unl
Heat Index: 39°   Visibility: 10mi
Dew Point: 22°   Wind: 0mph
Humidity: 51%   Direction: NA
Pressure: 30.35"   Gusts: NA
Location:  35.73°N, 80.68°W
Report Text: KRUQ 230055Z AUTO 00000KT 10SM CLR 04/M06 A3035 RMK AO2 T00371056
Loading
Personal Weather Stations






























Interactive Weather Map New forecast layout! Learn more

10-Day Weather Forecast

Advertisements
Track Severe Weather on mobile